Time;durP1;ratioP1;P1;durP2;ratioP2;P2;SDS_P1;SDS_P2;PMS_P1;PMS_P2;Temp;Humidity;BMP_temperature;BMP_pressure;BME280_temperature;BME280_humidity;BME280_pressure;Samples;Min_cycle;Max_cycle;Signal;HPM_P1;HPM_P2
2022/10/01 00:00:13;;;;;;;9.63;6.55;;;;;;;;;;4992618;28;20034;-81
2022/10/01 00:02:38;;;;;;;10.93;6.93;;;;;;;;;;4990083;28;20407;-82
2022/10/01 00:05:05;;;;;;;10.32;6.88;;;;;;;;;;4974501;28;20046;-81
2022/10/01 00:07:37;;;;;;;9.73;7.22;;;;;;;;;;4960281;28;20114;-82
2022/10/01 00:10:03;;;;;;;9.63;6.45;;;;;;;;;;4980856;28;20124;-82
2022/10/01 00:12:28;;;;;;;9.50;6.20;;;;;;;;;;4964181;28;20040;-82
2022/10/01 00:14:54;;;;;;;11.68;6.15;;;;;;;;;;4957635;28;20038;-83
2022/10/01 00:17:23;;;;;;;9.98;6.53;;;;;;;;;;4982969;28;20092;-82
2022/10/01 00:19:48;;;;;;;9.05;6.80;;;;;;;;;;4965183;28;20041;-82
2022/10/01 00:22:14;;;;;;;9.80;6.60;;;;;;;;;;4975631;28;20041;-83
2022/10/01 00:24:39;;;;;;;9.50;6.47;;;;;;;;;;4966247;28;20375;-83
2022/10/01 00:27:05;;;;;;;9.00;6.38;;;;;;;;;;4970283;28;20121;-83
2022/10/01 00:29:30;;;;;;;9.35;6.45;;;;;;;;;;4973131;28;20038;-83
2022/10/01 00:31:56;;;;;;;10.05;6.35;;;;;;;;;;4966114;28;20026;-83
2022/10/01 00:34:22;;;;;;;10.02;6.22;;;;;;;;;;4968191;28;20049;-82
2022/10/01 00:36:48;;;;;;;9.52;6.72;;;;;;;;;;5003291;28;20053;-82
2022/10/01 00:39:13;;;;;;;10.60;6.25;;;;;;;;;;4977948;28;20039;-82
2022/10/01 00:41:39;;;;;;;9.02;6.60;;;;;;;;;;4964617;28;20045;-82
2022/10/01 00:44:31;;;;;;;10.48;6.72;;;;;;;;;;4967479;28;20042;-82
2022/10/01 00:47:01;;;;;;;9.75;6.45;;;;;;;;;;4986597;28;20046;-82
2022/10/01 00:49:28;;;;;;;9.93;6.28;;;;;;;;;;4988193;28;20035;-82
2022/10/01 00:51:59;;;;;;;8.60;6.35;;;;;;;;;;4968426;28;20033;-81
2022/10/01 00:54:38;;;;;;;10.60;6.65;;;;;;;;;;4965447;28;20039;-82
2022/10/01 00:57:04;;;;;;;9.73;6.30;;;;;;;;;;4964187;28;20509;-82
2022/10/01 00:59:30;;;;;;;9.13;6.28;;;;;;;;;;4989658;28;20518;-82
2022/10/01 01:01:55;;;;;;;9.52;6.93;;;;;;;;;;4971760;28;20044;-82
2022/10/01 01:04:21;;;;;;;9.70;6.85;;;;;;;;;;4972693;28;20045;-82
2022/10/01 01:06:58;;;;;;;10.65;6.65;;;;;;;;;;4977361;28;20137;-82
2022/10/01 01:09:29;;;;;;;9.73;6.60;;;;;;;;;;4962800;28;20144;-82
2022/10/01 01:12:04;;;;;;;10.48;6.63;;;;;;;;;;4985738;28;20506;-81
2022/10/01 01:14:38;;;;;;;10.32;6.50;;;;;;;;;;4985546;28;20069;-82
2022/10/01 01:17:12;;;;;;;10.88;6.93;;;;;;;;;;4983091;28;20125;-81
2022/10/01 01:19:46;;;;;;;9.57;6.32;;;;;;;;;;4985877;28;20109;-82
2022/10/01 01:22:12;;;;;;;10.90;6.60;;;;;;;;;;4986427;28;20121;-82
2022/10/01 01:24:56;;;;;;;10.83;6.77;;;;;;;;;;4982101;28;20044;-83
2022/10/01 01:27:31;;;;;;;10.43;6.65;;;;;;;;;;4957968;28;20036;-82
2022/10/01 01:30:13;;;;;;;11.13;6.97;;;;;;;;;;4986051;28;20149;-82
2022/10/01 01:33:10;;;;;;;8.50;6.47;;;;;;;;;;4977697;28;20034;-82
2022/10/01 01:35:45;;;;;;;10.05;6.72;;;;;;;;;;4940473;28;20505;-82
2022/10/01 01:38:14;;;;;;;10.85;6.72;;;;;;;;;;4979936;28;20545;-82
2022/10/01 01:40:41;;;;;;;9.73;6.88;;;;;;;;;;4956712;28;20042;-82
2022/10/01 01:43:10;;;;;;;9.93;7.03;;;;;;;;;;4985382;28;20042;-82
2022/10/01 01:45:38;;;;;;;9.73;6.82;;;;;;;;;;4961233;28;20122;-82
2022/10/01 01:48:05;;;;;;;10.27;7.20;;;;;;;;;;4975020;28;20520;-83
2022/10/01 01:50:39;;;;;;;10.75;6.72;;;;;;;;;;4988924;28;20066;-83
2022/10/01 01:53:07;;;;;;;10.63;6.65;;;;;;;;;;4987665;28;20953;-82
2022/10/01 01:55:33;;;;;;;10.02;6.70;;;;;;;;;;4980890;28;20858;-82
2022/10/01 01:57:59;;;;;;;9.32;6.70;;;;;;;;;;4970817;28;20042;-82
2022/10/01 02:00:24;;;;;;;11.70;7.00;;;;;;;;;;4990368;28;20042;-82
2022/10/01 02:02:52;;;;;;;10.60;7.40;;;;;;;;;;4970285;28;20397;-82
2022/10/01 02:05:21;;;;;;;9.77;6.88;;;;;;;;;;4968632;28;20026;-82
2022/10/01 02:07:51;;;;;;;11.48;7.20;;;;;;;;;;4984279;28;20062;-81
2022/10/01 02:10:48;;;;;;;11.07;7.35;;;;;;;;;;5001548;28;20045;-81
2022/10/01 02:13:41;;;;;;;10.80;6.63;;;;;;;;;;4955923;28;20062;-82
2022/10/01 02:16:31;;;;;;;12.18;8.15;;;;;;;;;;4989133;28;20783;-82
2022/10/01 02:19:05;;;;;;;10.65;7.40;;;;;;;;;;4971611;28;20144;-81
2022/10/01 02:21:36;;;;;;;11.85;6.95;;;;;;;;;;5000001;28;20701;-82
2022/10/01 02:24:14;;;;;;;11.05;7.50;;;;;;;;;;4972957;28;20022;-82
2022/10/01 02:26:41;;;;;;;11.32;7.68;;;;;;;;;;4985941;28;20033;-83
2022/10/01 02:29:10;;;;;;;11.25;7.70;;;;;;;;;;4962723;28;20057;-82
2022/10/01 02:31:35;;;;;;;10.80;6.97;;;;;;;;;;4958374;28;20089;-80
2022/10/01 02:34:01;;;;;;;14.65;7.72;;;;;;;;;;4971300;28;20038;-81
2022/10/01 02:36:29;;;;;;;10.90;7.68;;;;;;;;;;4975700;28;20042;-81
2022/10/01 02:38:55;;;;;;;11.18;7.63;;;;;;;;;;4957756;28;20069;-82
2022/10/01 02:41:26;;;;;;;14.35;8.30;;;;;;;;;;4972375;28;20081;-82
2022/10/01 02:44:00;;;;;;;11.18;7.78;;;;;;;;;;4959862;28;20038;-82
2022/10/01 02:46:41;;;;;;;11.13;7.72;;;;;;;;;;4978469;28;20069;-82
2022/10/01 02:49:09;;;;;;;12.00;7.80;;;;;;;;;;4978557;28;20029;-82
2022/10/01 02:51:53;;;;;;;11.60;8.02;;;;;;;;;;4965672;28;20038;-82
2022/10/01 02:54:25;;;;;;;12.10;7.55;;;;;;;;;;4968670;28;20120;-81
2022/10/01 02:59:35;;;;;;;11.35;7.57;;;;;;;;;;4985051;28;20440;-81
2022/10/01 03:02:00;;;;;;;11.90;8.13;;;;;;;;;;4970657;28;20030;-82
2022/10/01 03:04:26;;;;;;;10.27;6.95;;;;;;;;;;4966387;28;20138;-81
2022/10/01 03:06:51;;;;;;;11.65;7.65;;;;;;;;;;4965690;28;20026;-82
2022/10/01 03:09:16;;;;;;;11.32;7.30;;;;;;;;;;4964920;28;20401;-82
2022/10/01 03:11:42;;;;;;;11.93;7.60;;;;;;;;;;4984240;28;20092;-81
2022/10/01 03:14:09;;;;;;;11.20;7.90;;;;;;;;;;4970924;28;20041;-82
2022/10/01 03:16:34;;;;;;;10.60;7.25;;;;;;;;;;4987532;28;20805;-80
2022/10/01 03:19:03;;;;;;;11.18;7.53;;;;;;;;;;4972650;28;20033;-81
2022/10/01 03:21:28;;;;;;;10.15;6.80;;;;;;;;;;4965280;28;20496;-82
2022/10/01 03:23:53;;;;;;;11.40;7.40;;;;;;;;;;4972357;28;20050;-80
2022/10/01 03:26:19;;;;;;;9.95;6.90;;;;;;;;;;4971938;28;20073;-82
2022/10/01 03:28:44;;;;;;;10.50;7.63;;;;;;;;;;4979590;28;20445;-82
2022/10/01 03:31:10;;;;;;;11.82;7.80;;;;;;;;;;5004449;28;20405;-83
2022/10/01 03:33:36;;;;;;;10.60;7.00;;;;;;;;;;4987709;28;20042;-83
2022/10/01 03:36:02;;;;;;;11.98;7.43;;;;;;;;;;4974761;28;20126;-82
2022/10/01 03:38:27;;;;;;;9.77;7.18;;;;;;;;;;4972119;28;20069;-82
2022/10/01 03:40:53;;;;;;;9.63;6.93;;;;;;;;;;4991264;28;20034;-83
2022/10/01 03:43:19;;;;;;;10.43;6.80;;;;;;;;;;4976425;28;20540;-82
2022/10/01 03:45:44;;;;;;;12.13;7.50;;;;;;;;;;4975084;28;20057;-82
2022/10/01 03:48:09;;;;;;;10.82;6.93;;;;;;;;;;4975026;28;20034;-82
2022/10/01 03:50:35;;;;;;;12.02;7.22;;;;;;;;;;4991213;28;20050;-82
2022/10/01 03:53:00;;;;;;;10.30;6.88;;;;;;;;;;4992294;28;20117;-82
2022/10/01 03:55:26;;;;;;;11.15;7.47;;;;;;;;;;4993931;28;20488;-82
2022/10/01 03:57:51;;;;;;;9.68;6.55;;;;;;;;;;4987218;28;20034;-82
2022/10/01 04:00:17;;;;;;;9.95;6.38;;;;;;;;;;4974633;28;20034;-81
2022/10/01 04:02:43;;;;;;;9.70;6.65;;;;;;;;;;4976829;28;20042;-83
2022/10/01 04:05:08;;;;;;;9.65;6.80;;;;;;;;;;4989630;28;20034;-84
2022/10/01 04:07:33;;;;;;;11.02;6.68;;;;;;;;;;4990752;28;20049;-81
2022/10/01 04:09:59;;;;;;;9.48;6.10;;;;;;;;;;4975716;28;20414;-82
2022/10/01 04:12:24;;;;;;;9.73;6.65;;;;;;;;;;4990438;28;20080;-81
2022/10/01 04:14:50;;;;;;;9.55;6.38;;;;;;;;;;4976984;28;20042;-82
2022/10/01 04:17:15;;;;;;;9.80;6.63;;;;;;;;;;4970616;28;20541;-80
2022/10/01 04:19:40;;;;;;;9.50;6.35;;;;;;;;;;4960394;28;20030;-82
2022/10/01 04:22:06;;;;;;;11.57;7.00;;;;;;;;;;4956810;28;20092;-82
2022/10/01 04:24:31;;;;;;;9.45;6.40;;;;;;;;;;4967850;28;20031;-82
2022/10/01 04:26:56;;;;;;;9.65;6.80;;;;;;;;;;4953821;28;20053;-82
2022/10/01 04:29:22;;;;;;;8.75;6.10;;;;;;;;;;4991178;28;20053;-83
2022/10/01 04:31:47;;;;;;;9.50;6.40;;;;;;;;;;4968266;28;20042;-82
2022/10/01 04:34:12;;;;;;;9.52;6.20;;;;;;;;;;4971513;28;20448;-82
2022/10/01 04:36:38;;;;;;;9.23;6.00;;;;;;;;;;4968808;28;20057;-82
2022/10/01 04:39:03;;;;;;;9.07;6.10;;;;;;;;;;4955211;28;20070;-82
2022/10/01 04:41:30;;;;;;;9.45;6.45;;;;;;;;;;4955790;28;20143;-82
2022/10/01 04:43:56;;;;;;;8.52;6.07;;;;;;;;;;4953887;28;20031;-82
2022/10/01 04:46:21;;;;;;;7.85;5.50;;;;;;;;;;4956282;28;20042;-82
2022/10/01 04:48:48;;;;;;;7.53;5.53;;;;;;;;;;4968944;28;20038;-82
2022/10/01 04:51:14;;;;;;;10.15;6.55;;;;;;;;;;4967893;28;20363;-82
2022/10/01 04:53:39;;;;;;;8.88;5.97;;;;;;;;;;4956718;28;20034;-83
2022/10/01 04:56:05;;;;;;;8.82;5.93;;;;;;;;;;4972877;28;21099;-82
2022/10/01 04:58:30;;;;;;;9.20;5.63;;;;;;;;;;4967768;28;20046;-82
2022/10/01 05:00:56;;;;;;;8.50;5.15;;;;;;;;;;4956073;28;20034;-82
2022/10/01 05:03:21;;;;;;;8.68;5.88;;;;;;;;;;4971141;28;20030;-82
2022/10/01 05:05:46;;;;;;;9.95;5.72;;;;;;;;;;4951811;28;20133;-82
2022/10/01 05:08:12;;;;;;;8.10;5.43;;;;;;;;;;4953553;28;20060;-81
2022/10/01 05:10:37;;;;;;;10.13;5.60;;;;;;;;;;4951865;28;20156;-82
2022/10/01 05:13:03;;;;;;;7.53;5.05;;;;;;;;;;4964624;28;20035;-84
2022/10/01 05:15:29;;;;;;;10.25;5.80;;;;;;;;;;4958643;28;20448;-82
2022/10/01 05:17:55;;;;;;;9.68;5.97;;;;;;;;;;4971838;28;20026;-82
2022/10/01 05:20:23;;;;;;;11.10;6.22;;;;;;;;;;4961774;28;20038;-82
2022/10/01 05:22:48;;;;;;;7.82;4.97;;;;;;;;;;4955410;28;20516;-82
2022/10/01 05:25:15;;;;;;;8.35;5.28;;;;;;;;;;4965828;28;20034;-82
2022/10/01 05:27:40;;;;;;;8.40;5.60;;;;;;;;;;4973187;28;20120;-82
2022/10/01 05:30:09;;;;;;;7.40;5.03;;;;;;;;;;4972719;28;20042;-83
2022/10/01 05:32:37;;;;;;;9.80;5.15;;;;;;;;;;4971122;28;20097;-82
2022/10/01 05:35:04;;;;;;;7.72;5.20;;;;;;;;;;4957796;28;20038;-82
2022/10/01 05:37:29;;;;;;;9.13;5.13;;;;;;;;;;4963537;28;20132;-82
2022/10/01 05:39:55;;;;;;;7.20;4.97;;;;;;;;;;4962855;28;20564;-82
2022/10/01 05:42:20;;;;;;;9.82;5.40;;;;;;;;;;4955018;28;20069;-82
2022/10/01 05:44:45;;;;;;;7.93;5.53;;;;;;;;;;4954553;28;20041;-81
2022/10/01 05:47:13;;;;;;;9.05;5.40;;;;;;;;;;4956182;28;20110;-82
2022/10/01 05:49:41;;;;;;;8.40;5.10;;;;;;;;;;4971700;28;20037;-85
2022/10/01 05:52:09;;;;;;;7.03;4.65;;;;;;;;;;4970843;28;20449;-83
2022/10/01 05:54:34;;;;;;;;;;;;;;;;;;4972189;28;20064;-82
2022/10/01 05:57:00;;;;;;;9.60;5.23;;;;;;;;;;4958092;28;20005;-82
2022/10/01 05:59:25;;;;;;;6.90;4.63;;;;;;;;;;4967912;28;20354;-82
2022/10/01 06:01:50;;;;;;;8.27;4.75;;;;;;;;;;4971714;28;20164;-82
2022/10/01 06:04:16;;;;;;;8.02;5.05;;;;;;;;;;4960429;28;20118;-82
2022/10/01 06:06:41;;;;;;;8.02;4.30;;;;;;;;;;4973293;28;20044;-83
2022/10/01 06:09:06;;;;;;;8.32;4.78;;;;;;;;;;4958278;28;20417;-83
2022/10/01 06:11:34;;;;;;;6.80;4.78;;;;;;;;;;4960218;28;20470;-81
2022/10/01 06:14:00;;;;;;;5.63;4.18;;;;;;;;;;4954567;28;20054;-82
2022/10/01 06:16:25;;;;;;;8.43;4.90;;;;;;;;;;4960165;28;20042;-82
2022/10/01 06:18:56;;;;;;;6.53;4.50;;;;;;;;;;4958142;28;20053;-82
2022/10/01 06:21:22;;;;;;;6.32;3.85;;;;;;;;;;4957028;28;20441;-83
2022/10/01 06:23:49;;;;;;;7.18;4.22;;;;;;;;;;4944881;28;20039;-82
2022/10/01 06:26:14;;;;;;;7.25;4.07;;;;;;;;;;4972446;28;20053;-82
2022/10/01 06:28:39;;;;;;;7.32;4.35;;;;;;;;;;4971904;28;20034;-82
2022/10/01 06:31:05;;;;;;;6.53;4.30;;;;;;;;;;4970830;28;20043;-82
2022/10/01 06:33:30;;;;;;;7.82;4.28;;;;;;;;;;4971082;28;20089;-82
2022/10/01 06:35:56;;;;;;;6.45;4.13;;;;;;;;;;4971869;28;20030;-82
2022/10/01 06:38:22;;;;;;;6.63;4.20;;;;;;;;;;4961999;28;20161;-83
2022/10/01 06:40:57;;;;;;;7.25;4.30;;;;;;;;;;4956960;28;20169;-82
2022/10/01 06:43:24;;;;;;;5.72;3.80;;;;;;;;;;4969227;28;20026;-83
2022/10/01 06:45:49;;;;;;;9.18;4.60;;;;;;;;;;4953242;28;20034;-82
2022/10/01 06:48:16;;;;;;;15.98;9.05;;;;;;;;;;4963015;28;20038;-83
2022/10/01 06:50:43;;;;;;;8.23;4.82;;;;;;;;;;4955754;28;20048;-84
2022/10/01 06:53:08;;;;;;;9.00;5.13;;;;;;;;;;4954436;28;20034;-88
2022/10/01 06:55:35;;;;;;;7.78;4.55;;;;;;;;;;4949629;28;20038;-88
2022/10/01 06:58:03;;;;;;;7.68;4.50;;;;;;;;;;4957853;28;20041;-90
2022/10/01 07:00:30;;;;;;;6.88;4.68;;;;;;;;;;4973067;28;20056;-88
2022/10/01 07:02:55;;;;;;;6.75;4.35;;;;;;;;;;4957035;28;20058;-89
2022/10/01 07:05:22;;;;;;;6.97;4.65;;;;;;;;;;4956741;28;20544;-89
2022/10/01 07:07:54;;;;;;;9.35;4.75;;;;;;;;;;4934536;28;20986;-92
2022/10/01 07:10:22;;;;;;;7.68;4.75;;;;;;;;;;4955894;28;20085;-86
2022/10/01 07:12:48;;;;;;;7.95;4.68;;;;;;;;;;4956554;28;20503;-89
2022/10/01 07:15:14;;;;;;;8.00;4.57;;;;;;;;;;4959293;28;20413;-89
2022/10/01 07:17:48;;;;;;;6.47;4.38;;;;;;;;;;4953685;28;20041;-86
2022/10/01 07:20:16;;;;;;;8.02;4.70;;;;;;;;;;4959202;28;20035;-88
2022/10/01 07:22:42;;;;;;;7.50;4.78;;;;;;;;;;4965977;28;20057;-87
2022/10/01 07:25:08;;;;;;;7.00;4.55;;;;;;;;;;4947204;28;20031;-88
2022/10/01 07:27:33;;;;;;;6.05;4.25;;;;;;;;;;4935036;28;20045;-90
2022/10/01 07:29:58;;;;;;;9.05;4.82;;;;;;;;;;4951229;28;20402;-89
2022/10/01 07:32:24;;;;;;;6.90;4.53;;;;;;;;;;4952682;28;20524;-88
2022/10/01 07:34:50;;;;;;;7.75;4.65;;;;;;;;;;4976120;28;20103;-89
2022/10/01 07:37:24;;;;;;;7.15;4.47;;;;;;;;;;4951394;28;20034;-87
2022/10/01 07:39:49;;;;;;;7.35;4.50;;;;;;;;;;4977313;28;20444;-88
2022/10/01 07:42:15;;;;;;;7.00;4.25;;;;;;;;;;4975624;28;20126;-88
2022/10/01 07:44:40;;;;;;;6.35;4.07;;;;;;;;;;4977140;28;20030;-89
2022/10/01 07:47:05;;;;;;;6.78;4.28;;;;;;;;;;4964132;28;20041;-90
2022/10/01 07:49:31;;;;;;;7.25;4.60;;;;;;;;;;4964698;28;20038;-90
2022/10/01 07:51:57;;;;;;;6.38;3.88;;;;;;;;;;4961169;28;20041;-88
2022/10/01 07:54:23;;;;;;;6.03;3.97;;;;;;;;;;4964352;28;20178;-90
2022/10/01 07:56:51;;;;;;;6.40;4.10;;;;;;;;;;4959214;28;20471;-90
2022/10/01 07:59:17;;;;;;;6.78;4.20;;;;;;;;;;4957713;28;20565;-88
2022/10/01 08:01:42;;;;;;;7.55;4.22;;;;;;;;;;4959710;28;20045;-82
2022/10/01 08:06:52;;;;;;;6.53;3.88;;;;;;;;;;4976888;28;20185;-81
2022/10/01 08:09:19;;;;;;;8.07;4.60;;;;;;;;;;4960203;28;20046;-81
2022/10/01 08:11:46;;;;;;;7.10;4.75;;;;;;;;;;4977069;28;20030;-81
2022/10/01 08:14:12;;;;;;;7.32;4.10;;;;;;;;;;4973515;28;20128;-81
2022/10/01 08:16:39;;;;;;;6.00;3.72;;;;;;;;;;4976181;28;20572;-82
2022/10/01 08:19:07;;;;;;;6.28;4.35;;;;;;;;;;4974688;28;20046;-81
2022/10/01 08:21:34;;;;;;;6.40;3.75;;;;;;;;;;4959473;28;20483;-81
2022/10/01 08:24:00;;;;;;;6.00;3.53;;;;;;;;;;4959352;28;20089;-81
2022/10/01 08:26:25;;;;;;;9.25;4.10;;;;;;;;;;4973809;28;20389;-81
2022/10/01 08:28:51;;;;;;;7.25;4.15;;;;;;;;;;4957948;28;20174;-81
2022/10/01 08:31:16;;;;;;;5.78;3.92;;;;;;;;;;4956320;28;20070;-80
2022/10/01 08:33:44;;;;;;;4.68;3.25;;;;;;;;;;4962314;28;20058;-81
2022/10/01 08:36:10;;;;;;;6.18;3.45;;;;;;;;;;4970390;28;20034;-81
2022/10/01 08:38:35;;;;;;;5.47;3.33;;;;;;;;;;4960087;28;20049;-81
2022/10/01 08:41:27;;;;;;;8.05;3.60;;;;;;;;;;4967654;28;20026;-80
2022/10/01 08:43:52;;;;;;;6.30;3.53;;;;;;;;;;4969669;28;20037;-81
2022/10/01 08:46:20;;;;;;;5.85;3.78;;;;;;;;;;4955421;28;20047;-81
2022/10/01 08:48:50;;;;;;;;;;;;;;;;;;4974026;28;20042;-81
2022/10/01 08:51:22;;;;;;;4.90;2.83;;;;;;;;;;4973923;28;20344;-82
2022/10/01 08:53:52;;;;;;;7.32;3.08;;;;;;;;;;4959586;28;20085;-81
2022/10/01 08:56:21;;;;;;;4.85;3.20;;;;;;;;;;4972810;28;20462;-81
2022/10/01 08:58:54;;;;;;;4.72;3.00;;;;;;;;;;4974026;28;20117;-81
2022/10/01 09:01:21;;;;;;;6.03;2.95;;;;;;;;;;4970042;28;20045;-81
2022/10/01 09:03:46;;;;;;;4.78;2.63;;;;;;;;;;4973781;28;20034;-81
2022/10/01 09:06:20;;;;;;;5.63;3.15;;;;;;;;;;4957223;28;20046;-82
2022/10/01 09:08:54;;;;;;;4.55;2.80;;;;;;;;;;4955854;28;20400;-81
2022/10/01 09:11:46;;;;;;;4.90;2.55;;;;;;;;;;4970889;28;20224;-81
2022/10/01 09:14:35;;;;;;;5.15;2.80;;;;;;;;;;4990544;28;20050;-82
2022/10/01 09:17:41;;;;;;;4.82;2.80;;;;;;;;;;4956659;28;20506;-81
2022/10/01 09:20:20;;;;;;;4.30;2.55;;;;;;;;;;4959476;28;20035;-82
2022/10/01 09:22:55;;;;;;;3.70;2.20;;;;;;;;;;4957892;28;20375;-83
2022/10/01 09:25:26;;;;;;;5.95;2.40;;;;;;;;;;4971842;28;20505;-82
2022/10/01 09:27:59;;;;;;;4.25;2.55;;;;;;;;;;4958233;28;20037;-82
2022/10/01 09:30:25;;;;;;;4.30;2.55;;;;;;;;;;4973785;28;20470;-82
2022/10/01 09:32:56;;;;;;;4.93;2.60;;;;;;;;;;4956994;28;20430;-82
2022/10/01 09:35:42;;;;;;;4.32;2.30;;;;;;;;;;4987191;28;20077;-81
2022/10/01 09:38:17;;;;;;;4.43;2.42;;;;;;;;;;4987102;28;20057;-82
2022/10/01 09:40:56;;;;;;;4.85;2.17;;;;;;;;;;4972594;28;20108;-82
2022/10/01 09:43:30;;;;;;;3.85;2.20;;;;;;;;;;4958672;28;20489;-82
2022/10/01 09:45:56;;;;;;;3.70;2.13;;;;;;;;;;4960844;28;20041;-82
2022/10/01 09:48:36;;;;;;;4.20;1.90;;;;;;;;;;4954912;28;20038;-83
2022/10/01 09:51:15;;;;;;;4.15;2.28;;;;;;;;;;4959939;28;20066;-82
2022/10/01 09:53:45;;;;;;;3.63;1.90;;;;;;;;;;4967393;28;20118;-84
2022/10/01 09:56:16;;;;;;;3.85;1.85;;;;;;;;;;4969968;28;20030;-84
2022/10/01 09:58:46;;;;;;;3.08;1.67;;;;;;;;;;4958968;28;20041;-81
2022/10/01 10:01:41;;;;;;;3.80;1.83;;;;;;;;;;4971957;28;20049;-82
2022/10/01 10:04:08;;;;;;;4.18;2.00;;;;;;;;;;4956613;28;20539;-83
2022/10/01 10:06:33;;;;;;;4.07;2.20;;;;;;;;;;4973509;28;20040;-82
2022/10/01 10:09:00;;;;;;;4.35;2.20;;;;;;;;;;4957319;28;20141;-82
2022/10/01 10:11:30;;;;;;;4.32;2.35;;;;;;;;;;4960722;28;20038;-82
2022/10/01 10:14:00;;;;;;;4.53;2.60;;;;;;;;;;4968485;28;20053;-82
2022/10/01 10:16:28;;;;;;;4.60;2.88;;;;;;;;;;4948113;28;20589;-83
2022/10/01 10:18:57;;;;;;;6.00;3.28;;;;;;;;;;4968758;28;20054;-83
2022/10/01 10:21:26;;;;;;;6.78;3.20;;;;;;;;;;4946649;28;20141;-83
2022/10/01 10:23:56;;;;;;;5.93;3.67;;;;;;;;;;4952123;28;20524;-84
2022/10/01 10:26:38;;;;;;;5.00;3.20;;;;;;;;;;4987007;28;20042;-84
2022/10/01 10:29:06;;;;;;;4.80;3.00;;;;;;;;;;4969879;28;20037;-84
2022/10/01 10:31:41;;;;;;;5.50;3.65;;;;;;;;;;4951401;28;20121;-84
2022/10/01 10:34:17;;;;;;;5.22;3.72;;;;;;;;;;4983975;28;20039;-84
2022/10/01 10:36:45;;;;;;;6.68;4.18;;;;;;;;;;4967203;28;20489;-85
2022/10/01 10:39:31;;;;;;;6.40;4.10;;;;;;;;;;4950627;28;20081;-85
2022/10/01 10:42:01;;;;;;;6.90;4.28;;;;;;;;;;4986129;28;20116;-84
2022/10/01 10:44:35;;;;;;;7.30;4.30;;;;;;;;;;4967110;28;20065;-86
2022/10/01 10:47:02;;;;;;;7.72;4.40;;;;;;;;;;4969755;28;20037;-84
2022/10/01 10:49:32;;;;;;;6.25;4.20;;;;;;;;;;4967962;28;20854;-85
2022/10/01 10:51:59;;;;;;;8.15;4.78;;;;;;;;;;4970960;28;20041;-87
2022/10/01 10:54:31;;;;;;;7.38;4.82;;;;;;;;;;4949068;28;20122;-83
2022/10/01 10:57:15;;;;;;;7.22;4.70;;;;;;;;;;4984182;28;20030;-84
2022/10/01 10:59:40;;;;;;;7.90;4.88;;;;;;;;;;4962876;28;20499;-85
2022/10/01 11:02:14;;;;;;;8.60;5.38;;;;;;;;;;4967507;28;20043;-85
2022/10/01 11:04:42;;;;;;;8.32;4.85;;;;;;;;;;4969576;28;20790;-84
2022/10/01 11:07:08;;;;;;;9.02;5.45;;;;;;;;;;4964773;28;20059;-85
2022/10/01 11:09:59;;;;;;;8.45;4.97;;;;;;;;;;4970669;28;20045;-84
2022/10/01 11:12:49;;;;;;;7.07;4.75;;;;;;;;;;4950173;28;20046;-84
2022/10/01 11:15:39;;;;;;;7.18;4.90;;;;;;;;;;4986813;28;20129;-85
2022/10/01 11:18:38;;;;;;;7.88;4.05;;;;;;;;;;4972308;28;20578;-84
2022/10/01 11:21:09;;;;;;;5.97;3.65;;;;;;;;;;4953255;28;20034;-85
2022/10/01 11:24:25;;;;;;;8.38;4.55;;;;;;;;;;4974632;28;20137;-83
2022/10/01 11:27:23;;;;;;;7.70;4.45;;;;;;;;;;4948665;28;20034;-84
2022/10/01 11:30:25;;;;;;;8.23;4.47;;;;;;;;;;4984545;28;20478;-85
2022/10/01 11:33:04;;;;;;;7.25;4.00;;;;;;;;;;4953382;28;20565;-84
2022/10/01 11:35:41;;;;;;;6.10;3.72;;;;;;;;;;4971018;28;20103;-84
2022/10/01 11:38:27;;;;;;;5.72;3.60;;;;;;;;;;4971349;28;22634;-84
2022/10/01 11:41:18;;;;;;;5.57;3.47;;;;;;;;;;4967963;28;20096;-82
2022/10/01 11:44:02;;;;;;;6.85;3.67;;;;;;;;;;4953553;28;20457;-84
2022/10/01 11:46:31;;;;;;;6.30;3.55;;;;;;;;;;4978802;28;20049;-82
2022/10/01 11:49:07;;;;;;;6.40;3.90;;;;;;;;;;4963708;28;20096;-85
2022/10/01 11:51:41;;;;;;;6.53;3.75;;;;;;;;;;4982335;28;20065;-83
2022/10/01 11:54:12;;;;;;;5.80;3.80;;;;;;;;;;4968446;28;20093;-84
2022/10/01 11:59:48;;;;;;;4.65;3.08;;;;;;;;;;4973679;28;20050;-83
2022/10/01 12:02:25;;;;;;;6.18;3.25;;;;;;;;;;4970306;28;20057;-85
2022/10/01 12:05:04;;;;;;;5.20;3.33;;;;;;;;;;4966559;28;20082;-85
2022/10/01 12:08:10;;;;;;;4.78;2.83;;;;;;;;;;4973450;28;20180;-84
2022/10/01 12:10:38;;;;;;;5.97;2.88;;;;;;;;;;4967467;28;20045;-82
2022/10/01 12:13:18;;;;;;;4.88;2.60;;;;;;;;;;4989410;28;20721;-85
2022/10/01 12:15:48;;;;;;;4.10;2.60;;;;;;;;;;4961999;28;20056;-86
2022/10/01 12:18:20;;;;;;;4.55;2.78;;;;;;;;;;4972100;28;20093;-86
2022/10/01 12:20:51;;;;;;;4.88;2.78;;;;;;;;;;4989155;28;20060;-85
2022/10/01 12:23:20;;;;;;;3.67;2.28;;;;;;;;;;4976502;28;20340;-82
2022/10/01 12:25:56;;;;;;;5.50;2.83;;;;;;;;;;4956611;28;20122;-84
2022/10/01 12:28:27;;;;;;;4.40;2.83;;;;;;;;;;4974417;28;20046;-84
2022/10/01 12:31:02;;;;;;;6.47;3.60;;;;;;;;;;4958044;28;20065;-83
2022/10/01 12:33:39;;;;;;;5.90;3.13;;;;;;;;;;4960931;28;20100;-84
2022/10/01 12:36:15;;;;;;;;;;;;;;;;;;4967442;28;20034;-85
2022/10/01 12:39:04;;;;;;;4.25;2.60;;;;;;;;;;4957139;28;20407;-82
2022/10/01 12:41:49;;;;;;;5.47;3.47;;;;;;;;;;4989545;28;20042;-84
2022/10/01 12:44:39;;;;;;;5.80;3.83;;;;;;;;;;4976362;28;20057;-85
2022/10/01 12:47:27;;;;;;;5.50;3.55;;;;;;;;;;4971055;28;20034;-84
2022/10/01 12:49:58;;;;;;;5.78;3.47;;;;;;;;;;4962909;28;20114;-81
2022/10/01 12:52:42;;;;;;;5.03;3.10;;;;;;;;;;4958653;28;20080;-83
2022/10/01 12:55:07;;;;;;;5.35;3.17;;;;;;;;;;4973122;28;20072;-83
2022/10/01 12:57:45;;;;;;;4.95;2.90;;;;;;;;;;4989636;28;20046;-83
2022/10/01 13:00:22;;;;;;;5.13;3.28;;;;;;;;;;4973431;28;20040;-82
2022/10/01 13:02:54;;;;;;;;;;;;;;;;;;4958979;28;20046;-83
2022/10/01 13:05:48;;;;;;;5.22;2.90;;;;;;;;;;4988963;28;20012;-82
2022/10/01 13:08:17;;;;;;;6.15;3.38;;;;;;;;;;4974374;28;20051;-82
2022/10/01 13:10:45;;;;;;;5.68;3.50;;;;;;;;;;4978350;28;20046;-81
2022/10/01 13:13:13;;;;;;;6.15;3.47;;;;;;;;;;4994307;28;20044;-82
2022/10/01 13:15:40;;;;;;;4.43;2.72;;;;;;;;;;5005131;28;20095;-82
2022/10/01 13:18:19;;;;;;;4.82;3.30;;;;;;;;;;4989830;28;20037;-82
2022/10/01 13:20:59;;;;;;;4.97;3.00;;;;;;;;;;4974037;28;20033;-82
2022/10/01 13:23:38;;;;;;;4.63;3.00;;;;;;;;;;5005884;28;20045;-81
2022/10/01 13:26:26;;;;;;;5.35;3.47;;;;;;;;;;4993250;28;20056;-82
2022/10/01 13:29:10;;;;;;;6.00;3.08;;;;;;;;;;4971588;28;20420;-81
2022/10/01 13:31:58;;;;;;;5.45;2.75;;;;;;;;;;4987664;28;20046;-81
2022/10/01 13:34:38;;;;;;;4.68;2.97;;;;;;;;;;5005051;28;20097;-81
2022/10/01 13:37:13;;;;;;;5.38;3.30;;;;;;;;;;4978531;28;20373;-82
2022/10/01 13:39:41;;;;;;;4.88;3.00;;;;;;;;;;4989328;28;20042;-82
2022/10/01 13:42:14;;;;;;;5.20;2.63;;;;;;;;;;4987426;28;20373;-82
2022/10/01 13:44:40;;;;;;;5.03;2.95;;;;;;;;;;4973335;28;20160;-82
2022/10/01 13:47:07;;;;;;;3.88;2.45;;;;;;;;;;4985795;28;20073;-82
2022/10/01 13:49:33;;;;;;;4.23;2.60;;;;;;;;;;4990565;28;20034;-83
2022/10/01 13:52:01;;;;;;;4.25;2.40;;;;;;;;;;4973541;28;20038;-81
2022/10/01 13:54:39;;;;;;;4.20;2.65;;;;;;;;;;4972539;28;20025;-82
2022/10/01 13:57:28;;;;;;;4.22;2.22;;;;;;;;;;4969017;28;20504;-82
2022/10/01 14:00:17;;;;;;;4.22;2.42;;;;;;;;;;4972715;28;20062;-82
2022/10/01 14:02:57;;;;;;;4.13;2.05;;;;;;;;;;4965098;28;20489;-81
2022/10/01 14:05:30;;;;;;;3.63;2.30;;;;;;;;;;4971867;28;20516;-81
2022/10/01 14:08:09;;;;;;;3.28;2.10;;;;;;;;;;4983728;28;20034;-79
2022/10/01 14:16:28;;;;;;;4.07;1.70;;;;;;;;;;4987965;28;19924;-80
2022/10/01 14:18:54;;;;;;;3.63;2.03;;;;;;;;;;4989096;28;20053;-79
2022/10/01 14:21:34;;;;;;;4.78;2.10;;;;;;;;;;4970615;28;20187;-79
2022/10/01 14:24:04;;;;;;;3.10;1.67;;;;;;;;;;4987028;28;20038;-79
2022/10/01 14:26:32;;;;;;;3.70;1.90;;;;;;;;;;4985769;28;20038;-79
2022/10/01 14:29:15;;;;;;;3.58;1.90;;;;;;;;;;4978814;28;20037;-80
2022/10/01 14:31:56;;;;;;;3.67;1.90;;;;;;;;;;4967911;28;20136;-79
2022/10/01 14:34:47;;;;;;;2.90;1.60;;;;;;;;;;5005675;28;20046;-79
2022/10/01 14:37:16;;;;;;;3.22;1.73;;;;;;;;;;4935442;28;20038;-79
2022/10/01 14:39:41;;;;;;;2.83;1.60;;;;;;;;;;5003367;28;20117;-79
2022/10/01 14:42:09;;;;;;;2.67;1.63;;;;;;;;;;5002928;28;20393;-79
2022/10/01 14:44:45;;;;;;;2.03;1.20;;;;;;;;;;4958676;28;20074;-79
2022/10/01 14:47:22;;;;;;;2.45;1.25;;;;;;;;;;4959487;28;20535;-80
2022/10/01 14:49:48;;;;;;;2.85;1.50;;;;;;;;;;4971065;28;20042;-80
2022/10/01 14:52:24;;;;;;;3.30;1.42;;;;;;;;;;4974148;28;20041;-80
2022/10/01 14:54:55;;;;;;;2.63;1.35;;;;;;;;;;4986009;28;20107;-78
2022/10/01 14:57:26;;;;;;;3.50;1.38;;;;;;;;;;5004881;28;20146;-78
2022/10/01 14:59:52;;;;;;;2.63;1.30;;;;;;;;;;4987097;28;20512;-78
2022/10/01 15:02:23;;;;;;;2.65;1.48;;;;;;;;;;4965177;28;20043;-78
2022/10/01 15:04:54;;;;;;;2.95;1.50;;;;;;;;;;4987036;28;20103;-79
2022/10/01 15:07:20;;;;;;;2.40;1.20;;;;;;;;;;4966724;28;20031;-78
2022/10/01 15:09:46;;;;;;;2.78;1.20;;;;;;;;;;4962995;28;20050;-79
2022/10/01 15:12:12;;;;;;;2.55;1.38;;;;;;;;;;4970388;28;20038;-78
2022/10/01 15:14:41;;;;;;;2.60;1.50;;;;;;;;;;4978255;28;20049;-79
2022/10/01 15:17:15;;;;;;;4.10;1.80;;;;;;;;;;4971623;28;20033;-80